createdAt,value
2019-03-21T00:00:33.957Z,56.00
2019-03-21T00:01:43.004Z,56.14
2019-03-21T00:02:46.467Z,56.32
2019-03-21T00:03:51.624Z,56.70
2019-03-21T00:04:55.128Z,56.89
2019-03-21T00:05:58.604Z,57.00
2019-03-21T00:07:02.035Z,57.04
2019-03-21T00:08:06.697Z,57.00
2019-03-21T00:09:12.561Z,56.98
2019-03-21T00:10:31.011Z,56.96
2019-03-21T00:12:05.233Z,57.00
2019-03-21T00:13:08.753Z,57.12
2019-03-21T00:14:17.843Z,57.11
2019-03-21T00:15:27.332Z,57.26
2019-03-21T00:16:30.770Z,57.23
2019-03-21T00:17:37.329Z,57.08
2019-03-21T00:18:40.754Z,56.75
2019-03-21T00:19:44.193Z,56.69
2019-03-21T00:20:47.823Z,56.58
2019-03-21T00:21:51.349Z,56.55
2019-03-21T00:22:54.787Z,56.85
2019-03-21T00:23:58.287Z,57.30
2019-03-21T00:25:01.726Z,57.73
2019-03-21T00:26:05.278Z,57.98
2019-03-21T00:27:08.700Z,58.12
2019-03-21T00:28:12.164Z,58.18
2019-03-21T00:29:15.583Z,58.12
2019-03-21T00:30:21.632Z,58.27
2019-03-21T00:32:34.473Z,58.30
2019-03-21T00:33:38.004Z,58.24
2019-03-21T00:34:41.464Z,58.40
2019-03-21T00:35:44.897Z,58.59
2019-03-21T00:36:48.333Z,58.53
2019-03-21T00:52:33.150Z,59.03
2019-03-21T00:53:36.599Z,59.43
2019-03-21T00:54:40.104Z,59.55
2019-03-21T01:03:00.537Z,59.23
2019-03-21T01:09:40.061Z,58.50
2019-03-21T01:10:43.485Z,58.66
2019-03-21T01:11:46.913Z,58.89
2019-03-21T01:20:56.148Z,59.08
2019-03-21T01:21:59.596Z,59.35
2019-03-21T01:23:03.016Z,59.82
2019-03-21T01:24:06.473Z,60.00
2019-03-21T01:32:52.139Z,59.94
2019-03-21T01:33:55.593Z,60.14
2019-03-21T01:34:59.081Z,60.25
2019-03-21T01:42:19.030Z,60.09
2019-03-21T01:53:32.909Z,60.14
2019-03-21T01:54:36.372Z,59.91
2019-03-21T01:55:39.891Z,59.94
2019-03-21T01:56:43.326Z,60.27
2019-03-21T01:57:46.753Z,60.36
2019-03-21T01:58:50.549Z,60.29
2019-03-21T01:59:53.999Z,60.23
2019-03-21T02:00:57.769Z,60.40
2019-03-21T02:02:01.199Z,60.45
2019-03-21T02:03:05.163Z,60.51
2019-03-21T02:04:08.596Z,60.57
2019-03-21T02:05:12.138Z,60.78
2019-03-21T02:06:15.554Z,60.90
2019-03-21T02:07:18.985Z,60.77
2019-03-21T02:08:22.409Z,60.63
2019-03-21T02:09:25.873Z,60.73
2019-03-21T02:10:29.321Z,61.00
2019-03-21T02:11:32.812Z,60.95
2019-03-21T02:12:36.268Z,60.95
2019-03-21T02:13:39.695Z,61.00
2019-03-21T02:14:51.735Z,61.03
2019-03-21T02:15:50.743Z,61.09
2019-03-21T02:16:53.455Z,61.20
2019-03-21T02:17:56.885Z,61.10
2019-03-21T02:19:00.315Z,61.24
2019-03-21T02:20:05.384Z,61.06
2019-03-21T02:21:08.835Z,61.09
2019-03-21T02:22:12.305Z,61.00
2019-03-21T02:23:15.758Z,60.70
2019-03-21T02:24:19.221Z,60.41
2019-03-21T02:25:24.877Z,60.45
2019-03-21T02:26:28.330Z,60.44
2019-03-21T02:27:31.760Z,60.42
2019-03-21T02:28:35.261Z,60.39
2019-03-21T02:29:38.696Z,60.37
2019-03-21T02:30:45.195Z,60.43
2019-03-21T02:31:48.639Z,60.55
2019-03-21T02:32:55.162Z,60.76
2019-03-21T02:33:58.601Z,60.81
2019-03-21T02:35:02.033Z,60.92
2019-03-21T02:36:08.012Z,61.31
2019-03-21T02:37:11.473Z,61.33
2019-03-21T02:38:14.905Z,61.38
2019-03-21T02:39:18.330Z,61.54
2019-03-21T02:40:26.030Z,61.59
2019-03-21T02:41:29.484Z,61.68
2019-03-21T02:42:32.916Z,61.73
2019-03-21T02:43:36.782Z,61.78
2019-03-21T02:44:40.370Z,61.74
2019-03-21T02:45:43.846Z,61.65
2019-03-21T02:46:47.275Z,61.56
2019-03-21T02:47:50.728Z,61.46
2019-03-21T02:48:54.167Z,61.46
2019-03-21T02:49:57.583Z,61.47
2019-03-21T02:51:01.019Z,61.50
2019-03-21T02:52:04.543Z,61.52
2019-03-21T02:53:08.322Z,61.37
2019-03-21T02:54:11.845Z,61.46
2019-03-21T02:55:15.263Z,61.69
2019-03-21T02:56:24.118Z,61.55
2019-03-21T02:57:27.572Z,61.62
2019-03-21T02:58:31.014Z,61.61
2019-03-21T02:59:34.505Z,61.59
2019-03-21T03:00:39.871Z,61.51
2019-03-21T03:01:43.315Z,61.68
2019-03-21T03:02:46.949Z,61.81
2019-03-21T03:03:50.374Z,61.79
2019-03-21T03:04:53.799Z,61.68
2019-03-21T03:05:57.249Z,61.64
2019-03-21T03:07:01.363Z,61.73
2019-03-21T03:08:06.361Z,61.69
2019-03-21T03:09:09.844Z,61.77
2019-03-21T03:10:19.425Z,61.70
2019-03-21T03:11:24.696Z,61.78
2019-03-21T03:12:28.205Z,61.76
2019-03-21T03:13:31.656Z,61.60
2019-03-21T03:14:35.090Z,61.54
2019-03-21T03:15:39.585Z,61.63
2019-03-21T03:16:43.006Z,61.66
2019-03-21T03:17:46.495Z,61.71
2019-03-21T03:18:49.954Z,62.31
2019-03-21T03:19:53.385Z,62.83
2019-03-21T03:20:56.818Z,63.00
2019-03-21T03:22:00.244Z,62.95
2019-03-21T03:23:03.845Z,62.74
2019-03-21T03:24:07.290Z,62.36
2019-03-21T03:25:13.590Z,62.15
2019-03-21T03:26:17.072Z,62.37
2019-03-21T03:27:20.496Z,62.16
2019-03-21T03:28:29.589Z,61.81
2019-03-21T03:29:33.042Z,61.64
2019-03-21T03:30:36.486Z,61.50
2019-03-21T03:31:39.895Z,61.48
2019-03-21T03:32:43.324Z,61.61
2019-03-21T03:33:46.901Z,61.64
2019-03-21T03:34:50.363Z,61.82
2019-03-21T03:35:53.873Z,62.04
2019-03-21T03:36:57.413Z,62.30
2019-03-21T03:38:00.852Z,62.31
2019-03-21T03:39:06.358Z,62.18
2019-03-21T03:40:21.229Z,62.24
2019-03-21T03:41:24.726Z,62.42
2019-03-21T03:42:28.162Z,62.49
2019-03-21T03:43:31.614Z,62.59
2019-03-21T03:44:35.073Z,62.95
2019-03-21T03:45:39.946Z,62.88
2019-03-21T03:46:43.364Z,63.26
2019-03-21T03:47:46.872Z,63.58
2019-03-21T03:48:50.381Z,63.61
2019-03-21T03:49:53.811Z,63.63
2019-03-21T03:50:57.312Z,63.75
2019-03-21T03:52:00.763Z,64.04
2019-03-21T03:53:04.539Z,64.13
2019-03-21T03:54:07.991Z,63.96
2019-03-21T03:55:14.425Z,63.92
2019-03-21T03:56:17.919Z,63.88
2019-03-21T03:57:21.422Z,63.82
2019-03-21T03:58:45.904Z,63.91
2019-03-21T03:59:49.427Z,63.97
2019-03-21T04:00:52.931Z,63.68
2019-03-21T04:01:56.436Z,63.50
2019-03-21T04:02:59.849Z,63.55
2019-03-21T04:04:03.449Z,63.69
2019-03-21T04:05:09.907Z,63.75
2019-03-21T04:06:13.397Z,63.75
2019-03-21T04:07:16.962Z,63.87
2019-03-21T04:08:20.458Z,64.05
2019-03-21T04:09:24.180Z,64.21
2019-03-21T04:10:30.273Z,64.26
2019-03-21T04:11:33.768Z,64.31
2019-03-21T04:12:37.333Z,64.35
2019-03-21T04:13:40.836Z,64.33
2019-03-21T04:14:44.285Z,64.27
2019-03-21T04:15:53.044Z,64.22
2019-03-21T04:16:53.000Z,64.07
2019-03-21T04:17:56.430Z,64.00
2019-03-21T04:18:59.870Z,63.75
2019-03-21T04:20:04.263Z,63.74
2019-03-21T04:21:13.124Z,63.82
2019-03-21T04:22:16.616Z,63.75
2019-03-21T04:23:22.388Z,63.50
2019-03-21T04:24:25.951Z,63.34
2019-03-21T04:25:32.785Z,63.26
2019-03-21T04:26:36.863Z,63.23
2019-03-21T04:27:40.290Z,63.38
2019-03-21T04:28:50.024Z,63.47
2019-03-21T04:29:53.464Z,63.10
2019-03-21T04:30:56.901Z,63.11
2019-03-21T04:32:00.325Z,62.97
2019-03-21T04:33:03.824Z,63.15
2019-03-21T04:34:11.604Z,63.40
2019-03-21T04:35:15.126Z,63.46
2019-03-21T04:36:18.561Z,63.67
2019-03-21T04:37:22.073Z,63.98
2019-03-21T04:38:25.511Z,64.07
2019-03-21T04:39:28.929Z,63.92
2019-03-21T04:40:32.443Z,64.03
2019-03-21T04:41:36.141Z,63.88
2019-03-21T04:42:39.574Z,63.77
2019-03-21T04:43:43.009Z,63.77
2019-03-21T04:44:46.442Z,63.79
2019-03-21T04:45:49.902Z,63.80
2019-03-21T04:46:53.337Z,63.85
2019-03-21T04:47:56.803Z,63.97
2019-03-21T04:49:00.225Z,64.17
2019-03-21T04:50:05.518Z,64.27
2019-03-21T04:51:08.942Z,64.34
2019-03-21T04:52:12.373Z,64.35
2019-03-21T04:53:15.810Z,64.57
2019-03-21T04:54:19.304Z,64.64
2019-03-21T04:55:22.753Z,64.68
2019-03-21T04:56:26.206Z,64.49
2019-03-21T04:57:29.639Z,64.42
2019-03-21T04:58:33.056Z,64.55
2019-03-21T04:59:36.503Z,64.74
2019-03-21T05:00:41.497Z,64.79
2019-03-21T05:01:44.927Z,65.06
2019-03-21T05:02:48.624Z,65.19
2019-03-21T05:03:52.065Z,65.26
2019-03-21T05:04:55.494Z,65.36
2019-03-21T05:05:58.942Z,65.11
2019-03-21T05:07:02.362Z,64.78
2019-03-21T05:08:05.878Z,64.70
2019-03-21T05:09:11.648Z,64.62
2019-03-21T05:10:16.648Z,64.58
2019-03-21T05:11:20.167Z,64.74
2019-03-21T05:12:23.589Z,64.97
2019-03-21T05:13:27.024Z,65.21
2019-03-21T05:14:30.460Z,65.19
2019-03-21T05:15:45.281Z,65.21
2019-03-21T05:16:48.703Z,65.15
2019-03-21T05:17:55.168Z,65.19
2019-03-21T05:18:59.737Z,65.12
2019-03-21T05:20:04.418Z,64.92
2019-03-21T05:21:10.905Z,64.81
2019-03-21T05:22:14.337Z,64.72
2019-03-21T05:23:17.770Z,64.71
2019-03-21T05:24:21.198Z,64.78
2019-03-21T05:25:24.657Z,64.89
2019-03-21T05:26:28.084Z,64.99
2019-03-21T05:27:31.548Z,64.74
2019-03-21T05:28:34.973Z,64.94
2019-03-21T05:29:38.402Z,65.18
2019-03-21T05:30:50.955Z,65.48
2019-03-21T05:31:54.428Z,65.24
2019-03-21T05:32:57.865Z,64.82
2019-03-21T05:34:01.304Z,64.79
2019-03-21T05:35:07.312Z,64.80
2019-03-21T05:36:10.758Z,65.12
2019-03-21T05:37:14.449Z,65.17
2019-03-21T05:38:19.839Z,65.10
2019-03-21T05:39:23.273Z,65.01
2019-03-21T05:40:27.163Z,65.04
2019-03-21T05:41:30.628Z,65.18
2019-03-21T05:42:34.306Z,65.23
2019-03-21T05:43:40.786Z,66.05
2019-03-21T05:44:44.405Z,65.68
2019-03-21T05:45:47.983Z,65.54
2019-03-21T05:46:51.592Z,65.38
2019-03-21T05:47:55.092Z,65.19
2019-03-21T05:48:58.535Z,65.23
2019-03-21T05:50:02.033Z,65.41
2019-03-21T05:51:05.659Z,65.30
2019-03-21T05:52:09.209Z,65.31
2019-03-21T05:53:12.882Z,65.38
2019-03-21T05:54:16.333Z,65.32
2019-03-21T05:55:19.824Z,65.24
2019-03-21T05:56:23.329Z,65.13
2019-03-21T05:57:26.975Z,65.20
2019-03-21T05:58:30.541Z,65.13
2019-03-21T05:59:33.972Z,65.07
2019-03-21T06:00:46.695Z,64.97
2019-03-21T06:01:50.280Z,64.60
2019-03-21T06:02:53.778Z,64.67
2019-03-21T06:03:57.354Z,64.65
2019-03-21T06:05:00.870Z,64.61
2019-03-21T06:06:16.846Z,64.68
2019-03-21T06:07:22.497Z,64.51
2019-03-21T06:08:29.257Z,64.51
2019-03-21T06:09:32.843Z,64.45
2019-03-21T06:10:36.270Z,64.43
2019-03-21T06:11:41.696Z,64.46
2019-03-21T06:12:45.796Z,64.45
2019-03-21T06:13:49.366Z,64.25
2019-03-21T06:14:56.543Z,64.36
2019-03-21T06:16:10.770Z,64.42
2019-03-21T06:17:14.178Z,64.33
2019-03-21T06:18:38.802Z,64.17
2019-03-21T06:19:53.751Z,64.08
2019-03-21T06:21:09.243Z,63.86
2019-03-21T06:22:27.616Z,63.71
2019-03-21T06:23:48.989Z,63.47
2019-03-21T06:25:10.389Z,63.50
2019-03-21T06:26:40.589Z,63.35
2019-03-21T06:27:44.049Z,63.22
2019-03-21T06:28:47.497Z,63.13
2019-03-21T06:29:51.763Z,63.05
2019-03-21T06:30:55.309Z,63.03
2019-03-21T06:31:58.817Z,62.85
2019-03-21T06:33:02.251Z,62.75
2019-03-21T06:34:05.789Z,62.62
2019-03-21T06:35:20.253Z,62.56
2019-03-21T06:36:23.675Z,62.55
2019-03-21T06:37:28.851Z,62.60
2019-03-21T06:38:32.493Z,62.50
2019-03-21T06:39:35.936Z,62.35
2019-03-21T06:40:39.363Z,62.11
2019-03-21T06:41:42.795Z,61.91
2019-03-21T06:42:46.230Z,61.55
2019-03-21T06:43:49.654Z,61.66
2019-03-21T06:44:53.211Z,61.53
2019-03-21T06:45:56.636Z,61.66
2019-03-21T06:47:00.069Z,62.13
2019-03-21T06:48:03.502Z,62.36
2019-03-21T06:49:06.938Z,61.90
2019-03-21T06:50:10.526Z,61.72
2019-03-21T06:51:13.963Z,61.53
2019-03-21T06:52:17.373Z,61.24
2019-03-21T06:53:20.819Z,61.25
2019-03-21T06:54:24.344Z,61.23
2019-03-21T06:55:27.893Z,61.36
2019-03-21T06:56:31.340Z,61.23
2019-03-21T06:57:34.857Z,61.16
2019-03-21T06:58:38.361Z,60.86
2019-03-21T06:59:41.824Z,60.74
2019-03-21T07:00:45.390Z,60.91
2019-03-21T07:01:49.026Z,60.86
2019-03-21T07:02:52.457Z,60.56
2019-03-21T07:04:06.302Z,60.42
2019-03-21T07:05:01.144Z,60.10
2019-03-21T07:06:04.715Z,60.02
2019-03-21T07:07:08.746Z,59.88
2019-03-21T07:08:12.196Z,59.60
2019-03-21T07:09:15.603Z,59.28
2019-03-21T07:10:19.226Z,59.30
2019-03-21T07:11:22.666Z,59.42
2019-03-21T07:12:26.118Z,59.58
2019-03-21T07:13:29.539Z,59.47
2019-03-21T07:14:32.974Z,59.45
2019-03-21T07:15:36.642Z,59.26
2019-03-21T07:16:40.323Z,59.11
2019-03-21T07:17:43.757Z,59.16
2019-03-21T07:18:47.254Z,58.92
2019-03-21T07:19:50.772Z,58.84
2019-03-21T07:20:54.215Z,58.74
2019-03-21T07:21:57.719Z,58.68
2019-03-21T07:23:01.238Z,58.57
2019-03-21T07:24:05.048Z,58.25
2019-03-21T07:25:09.553Z,58.31
2019-03-21T07:26:13.040Z,58.05
2019-03-21T07:27:16.475Z,57.70
2019-03-21T07:28:20.013Z,57.83
2019-03-21T07:29:23.480Z,57.78
2019-03-21T07:30:26.988Z,57.55
2019-03-21T07:31:30.495Z,57.52
2019-03-21T07:32:34.013Z,57.58
2019-03-21T07:33:37.474Z,57.44
2019-03-21T07:34:41.041Z,57.30
2019-03-21T07:35:44.485Z,57.36
2019-03-21T07:36:47.961Z,57.25
2019-03-21T07:37:51.390Z,57.25
2019-03-21T07:38:54.817Z,57.18
2019-03-21T07:39:58.269Z,56.72
2019-03-21T07:41:01.779Z,56.25
2019-03-21T07:42:05.299Z,56.03
2019-03-21T07:43:08.781Z,55.40
2019-03-21T07:44:12.211Z,55.25
2019-03-21T07:45:15.879Z,55.28
2019-03-21T07:46:19.414Z,55.21
2019-03-21T07:47:22.945Z,55.57
2019-03-21T07:48:26.390Z,55.53
2019-03-21T07:49:29.820Z,55.52
2019-03-21T07:50:33.251Z,55.41
2019-03-21T07:51:36.710Z,55.12
2019-03-21T07:52:40.217Z,55.04
2019-03-21T07:53:43.651Z,54.44
2019-03-21T07:54:47.078Z,54.08
2019-03-21T07:55:50.502Z,53.96
2019-03-21T07:56:53.950Z,53.84
2019-03-21T07:57:59.374Z,53.62
2019-03-21T07:59:02.703Z,53.16
2019-03-21T08:00:09.172Z,53.23
2019-03-21T08:01:12.616Z,53.22
2019-03-21T08:02:16.114Z,53.22
2019-03-21T08:03:19.634Z,52.97
2019-03-21T08:04:23.157Z,52.39
2019-03-21T08:05:26.624Z,52.17
2019-03-21T08:06:30.082Z,52.02
2019-03-21T08:07:33.502Z,52.22
2019-03-21T08:08:36.932Z,53.18
2019-03-21T08:09:40.472Z,52.69
2019-03-21T08:10:43.997Z,52.08
2019-03-21T08:11:47.539Z,52.32
2019-03-21T08:12:51.125Z,52.04
2019-03-21T08:13:54.556Z,51.93
2019-03-21T08:14:57.980Z,51.85
2019-03-21T08:16:01.649Z,52.11
2019-03-21T08:17:05.237Z,52.16
2019-03-21T08:18:08.685Z,51.44
2019-03-21T08:19:12.183Z,50.55
2019-03-21T08:20:16.958Z,50.56
2019-03-21T08:21:20.396Z,50.77
2019-03-21T08:22:24.021Z,51.20
2019-03-21T08:23:27.459Z,50.75
2019-03-21T08:24:30.969Z,50.67
2019-03-21T08:25:34.466Z,50.72
2019-03-21T08:26:37.906Z,50.69
2019-03-21T08:27:41.535Z,50.17
2019-03-21T08:28:44.960Z,49.92
2019-03-21T08:29:48.453Z,50.11
2019-03-21T08:31:01.019Z,49.51
2019-03-21T08:32:04.466Z,49.80
2019-03-21T08:33:07.962Z,49.62
2019-03-21T08:34:11.390Z,49.25
2019-03-21T08:35:14.973Z,49.19
2019-03-21T08:36:18.510Z,48.96
2019-03-21T08:37:21.967Z,49.16
2019-03-21T08:38:25.382Z,49.35
2019-03-21T08:39:28.812Z,49.26
2019-03-21T08:40:32.432Z,49.30
2019-03-21T08:41:35.999Z,49.11
2019-03-21T08:42:39.496Z,49.33
2019-03-21T08:43:42.917Z,49.21
2019-03-21T08:44:46.339Z,49.35
2019-03-21T08:45:49.776Z,49.15
2019-03-21T08:46:53.206Z,48.99
2019-03-21T08:47:56.740Z,49.28
2019-03-21T08:49:00.148Z,49.10
2019-03-21T08:50:06.110Z,48.89
2019-03-21T08:51:09.542Z,48.90
2019-03-21T08:52:13.018Z,48.93
2019-03-21T08:53:16.458Z,48.59
2019-03-21T08:54:19.879Z,48.41
2019-03-21T08:55:23.302Z,48.16
2019-03-21T08:56:26.794Z,48.30
2019-03-21T08:57:30.324Z,48.53
2019-03-21T08:58:33.772Z,48.04
2019-03-21T08:59:37.268Z,47.80
2019-03-21T09:00:40.776Z,47.96
2019-03-21T09:01:44.285Z,48.01
2019-03-21T09:02:47.835Z,48.19
2019-03-21T09:03:51.417Z,48.30
2019-03-21T09:04:54.847Z,46.90
2019-03-21T09:05:58.267Z,46.66
2019-03-21T09:07:01.775Z,46.64
2019-03-21T09:08:05.367Z,46.04
2019-03-21T09:09:09.167Z,45.42
2019-03-21T09:10:12.665Z,45.31
2019-03-21T09:11:16.103Z,44.94
2019-03-21T09:12:22.263Z,44.53
2019-03-21T09:13:25.710Z,44.65
2019-03-21T09:14:29.199Z,44.75
2019-03-21T09:15:32.635Z,44.64
2019-03-21T09:16:36.137Z,44.90
2019-03-21T09:17:39.574Z,45.21
2019-03-21T09:18:42.998Z,44.60
2019-03-21T09:19:46.497Z,44.33
2019-03-21T09:20:49.985Z,44.57
2019-03-21T09:21:53.423Z,44.60
2019-03-21T09:22:56.847Z,44.20
2019-03-21T09:24:00.282Z,44.04
2019-03-21T09:25:05.449Z,43.74
2019-03-21T09:26:08.906Z,43.27
2019-03-21T09:27:12.345Z,43.38
2019-03-21T09:28:15.784Z,43.55
2019-03-21T09:29:19.220Z,43.60
2019-03-21T09:30:22.899Z,43.01
2019-03-21T09:31:26.293Z,42.75
2019-03-21T09:32:29.721Z,43.37
2019-03-21T09:33:33.216Z,42.77
2019-03-21T09:34:36.597Z,42.87
2019-03-21T09:35:40.025Z,42.04
2019-03-21T09:36:43.453Z,41.95
2019-03-21T09:37:46.880Z,42.04
2019-03-21T09:38:50.337Z,42.21
2019-03-21T09:39:53.773Z,42.08
2019-03-21T09:40:57.202Z,42.70
2019-03-21T09:42:00.630Z,42.62
2019-03-21T09:43:04.228Z,42.39
2019-03-21T09:44:07.796Z,42.00
2019-03-21T09:45:11.395Z,41.93
2019-03-21T09:46:14.966Z,42.25
2019-03-21T09:47:18.411Z,42.11
2019-03-21T09:48:21.848Z,42.13
2019-03-21T09:49:25.352Z,41.70
2019-03-21T09:50:29.916Z,41.79
2019-03-21T09:51:33.349Z,41.52
2019-03-21T09:52:36.917Z,41.81
2019-03-21T09:53:40.362Z,41.92
2019-03-21T09:54:43.783Z,41.52
2019-03-21T09:55:47.284Z,41.41
2019-03-21T09:56:50.760Z,41.61
2019-03-21T09:57:54.258Z,41.13
2019-03-21T09:58:57.718Z,41.31
2019-03-21T10:00:01.207Z,40.95
2019-03-21T10:01:04.707Z,40.83
2019-03-21T10:02:08.133Z,40.88
2019-03-21T10:03:11.563Z,40.90
2019-03-21T10:04:14.996Z,40.70
2019-03-21T10:05:18.497Z,39.91
2019-03-21T10:06:21.928Z,40.44
2019-03-21T10:07:25.351Z,40.50
2019-03-21T10:08:28.779Z,40.57
2019-03-21T10:09:32.233Z,40.54
2019-03-21T10:10:35.803Z,40.20
2019-03-21T10:11:39.229Z,40.49
2019-03-21T10:12:42.655Z,41.15
2019-03-21T10:13:46.095Z,41.34
2019-03-21T10:14:49.530Z,39.73
2019-03-21T10:15:53.041Z,39.07
2019-03-21T10:16:56.602Z,39.03
2019-03-21T10:18:00.192Z,39.21
2019-03-21T10:19:03.610Z,39.31
2019-03-21T10:20:07.375Z,39.38
2019-03-21T10:21:10.802Z,39.69
2019-03-21T10:22:14.236Z,39.74
2019-03-21T10:23:17.673Z,39.76
2019-03-21T10:24:21.116Z,40.01
2019-03-21T10:25:26.680Z,40.05
2019-03-21T10:26:29.688Z,39.67
2019-03-21T10:27:33.112Z,39.62
2019-03-21T10:28:36.541Z,39.53
2019-03-21T10:29:39.999Z,39.81
2019-03-21T10:30:43.571Z,40.09
2019-03-21T10:31:47.018Z,39.94
2019-03-21T10:32:50.454Z,40.09
2019-03-21T10:33:53.876Z,40.20
2019-03-21T10:34:57.400Z,39.95
2019-03-21T10:36:00.849Z,39.73
2019-03-21T10:37:04.346Z,39.73
2019-03-21T10:38:08.240Z,40.23
2019-03-21T10:39:11.689Z,40.23
2019-03-21T10:40:15.490Z,40.72
2019-03-21T10:41:18.944Z,40.51
2019-03-21T10:42:22.377Z,40.66
2019-03-21T10:43:25.792Z,40.25
2019-03-21T10:44:29.245Z,39.94
2019-03-21T10:45:32.848Z,39.79
2019-03-21T10:46:36.351Z,39.97
2019-03-21T10:47:39.845Z,39.97
2019-03-21T10:48:43.271Z,39.95
2019-03-21T10:49:46.817Z,39.97
2019-03-21T10:50:50.400Z,39.04
2019-03-21T10:51:55.118Z,39.44
2019-03-21T10:52:59.257Z,39.72
2019-03-21T10:54:02.826Z,39.91
2019-03-21T10:55:06.912Z,39.47
2019-03-21T10:56:10.405Z,39.17
2019-03-21T10:57:13.900Z,38.57
2019-03-21T10:58:17.474Z,38.25
2019-03-21T10:59:20.926Z,38.53
2019-03-21T11:00:24.508Z,38.93
2019-03-21T11:01:27.935Z,39.22
2019-03-21T11:02:31.407Z,39.22
2019-03-21T11:03:34.924Z,38.74
2019-03-21T11:04:38.362Z,38.27
2019-03-21T11:05:41.953Z,37.94
2019-03-21T11:06:45.455Z,37.98
2019-03-21T11:07:48.883Z,38.15
2019-03-21T11:08:52.363Z,37.70
2019-03-21T11:09:55.934Z,37.70
2019-03-21T11:10:59.471Z,37.91
2019-03-21T11:12:02.895Z,38.21
2019-03-21T11:13:06.501Z,38.19
2019-03-21T11:14:09.906Z,37.88
2019-03-21T11:15:13.709Z,38.03
2019-03-21T11:16:17.241Z,37.42
2019-03-21T11:17:20.730Z,37.03
2019-03-21T11:18:35.521Z,36.94
2019-03-21T11:19:29.478Z,36.82
2019-03-21T11:20:35.018Z,37.35
2019-03-21T11:21:38.437Z,37.85
2019-03-21T11:22:41.882Z,38.18
2019-03-21T11:23:45.358Z,37.39
2019-03-21T11:24:48.817Z,37.30
2019-03-21T11:25:52.346Z,36.87
2019-03-21T11:26:55.866Z,37.09
2019-03-21T11:27:59.308Z,37.10
2019-03-21T11:29:02.811Z,36.62
2019-03-21T11:30:15.602Z,36.30
2019-03-21T11:31:12.681Z,36.36
2019-03-21T11:32:16.117Z,36.54
2019-03-21T11:33:19.701Z,36.23
2019-03-21T11:34:23.137Z,35.95
2019-03-21T11:35:26.642Z,35.80
2019-03-21T11:36:38.257Z,35.96
2019-03-21T11:37:35.332Z,36.01
2019-03-21T11:38:38.836Z,35.89
2019-03-21T11:39:42.411Z,36.22
2019-03-21T11:40:48.255Z,36.01
2019-03-21T11:41:51.163Z,36.00
2019-03-21T11:42:54.687Z,35.65
2019-03-21T11:43:58.109Z,35.12
2019-03-21T11:45:01.568Z,35.26
2019-03-21T11:46:05.067Z,35.37
2019-03-21T11:47:08.594Z,35.25
2019-03-21T11:48:12.172Z,35.06
2019-03-21T11:49:15.597Z,35.32
2019-03-21T11:50:19.039Z,35.69
2019-03-21T11:51:22.566Z,35.67
2019-03-21T11:52:26.022Z,34.84
2019-03-21T11:53:29.452Z,34.89
2019-03-21T11:54:32.906Z,34.11
2019-03-21T11:55:36.402Z,33.81
2019-03-21T11:56:39.852Z,34.56
2019-03-21T11:57:43.289Z,34.38
2019-03-21T11:58:46.821Z,33.62
2019-03-21T11:59:51.786Z,32.56
2019-03-21T12:00:55.429Z,33.42
2019-03-21T12:01:58.898Z,33.05
2019-03-21T12:03:04.250Z,32.19
2019-03-21T12:04:07.571Z,32.89
2019-03-21T12:05:11.160Z,32.41
2019-03-21T12:06:14.585Z,32.46
2019-03-21T12:07:18.050Z,32.57
2019-03-21T12:08:21.489Z,31.66
2019-03-21T12:09:24.919Z,32.09
2019-03-21T12:10:28.363Z,32.13
2019-03-21T12:11:31.792Z,31.28
2019-03-21T12:12:35.410Z,31.44
2019-03-21T12:13:38.853Z,31.28
2019-03-21T12:14:42.358Z,31.09
2019-03-21T12:15:45.797Z,31.17
2019-03-21T12:16:49.223Z,31.36
2019-03-21T12:17:52.685Z,31.38
2019-03-21T12:18:56.113Z,30.81
2019-03-21T12:19:59.549Z,30.45
2019-03-21T12:21:02.973Z,29.86
2019-03-21T12:22:06.418Z,27.84
2019-03-21T12:23:09.935Z,27.47
2019-03-21T12:24:13.402Z,26.72
2019-03-21T12:25:16.825Z,26.01
2019-03-21T12:26:20.251Z,25.67
2019-03-21T12:27:23.688Z,25.56
2019-03-21T12:28:27.135Z,24.96
2019-03-21T12:29:30.605Z,24.75
2019-03-21T12:30:38.290Z,24.60
2019-03-21T12:31:41.730Z,24.75
2019-03-21T12:32:45.161Z,25.21
2019-03-21T12:33:48.605Z,26.04
2019-03-21T12:34:52.061Z,26.42
2019-03-21T12:35:55.495Z,27.19
2019-03-21T12:36:58.936Z,28.07
2019-03-21T12:38:02.526Z,27.52
2019-03-21T12:39:08.224Z,27.76
2019-03-21T12:40:11.795Z,27.99
2019-03-21T12:41:15.216Z,27.89
2019-03-21T12:42:20.114Z,27.77
2019-03-21T12:43:23.474Z,27.01
2019-03-21T12:44:26.939Z,26.33
2019-03-21T12:45:30.375Z,24.72
2019-03-21T12:46:34.821Z,24.41
2019-03-21T12:47:38.249Z,24.04
2019-03-21T12:48:41.682Z,23.31
2019-03-21T12:49:45.152Z,22.69
2019-03-21T12:50:48.643Z,22.55
2019-03-21T12:51:52.147Z,21.38
2019-03-21T12:52:55.581Z,21.86
2019-03-21T12:53:59.013Z,21.60
2019-03-21T12:55:02.528Z,21.86
2019-03-21T12:56:06.036Z,22.02
2019-03-21T12:57:09.501Z,21.83
2019-03-21T12:58:12.955Z,21.29
2019-03-21T12:59:16.386Z,21.25
2019-03-21T13:00:31.506Z,20.90
2019-03-21T13:01:34.949Z,20.49
2019-03-21T13:02:38.393Z,19.80
2019-03-21T13:03:41.894Z,20.05
2019-03-21T13:04:45.333Z,20.38
2019-03-21T13:05:48.901Z,20.52
2019-03-21T13:06:52.365Z,20.13
2019-03-21T13:07:55.881Z,20.71
2019-03-21T13:08:59.319Z,20.31
2019-03-21T13:10:03.050Z,20.21
2019-03-21T13:11:06.560Z,19.91
2019-03-21T13:12:09.998Z,19.67
2019-03-21T13:13:13.570Z,19.21
2019-03-21T13:14:17.025Z,20.09
2019-03-21T13:15:29.914Z,20.24
2019-03-21T13:16:26.700Z,19.82
2019-03-21T13:17:30.162Z,20.01
2019-03-21T13:18:33.603Z,20.95
2019-03-21T13:19:37.046Z,21.15
2019-03-21T13:20:40.575Z,21.75
2019-03-21T13:21:44.032Z,21.80
2019-03-21T13:22:52.991Z,21.94
2019-03-21T13:23:52.624Z,22.09
2019-03-21T13:24:56.077Z,22.06
2019-03-21T13:25:59.575Z,21.14
2019-03-21T13:27:03.020Z,21.95
2019-03-21T13:28:06.658Z,21.68
2019-03-21T13:29:10.116Z,22.36
2019-03-21T13:30:14.295Z,22.74
2019-03-21T13:31:17.761Z,23.00
2019-03-21T13:32:21.271Z,21.99
2019-03-21T13:33:24.714Z,21.70
2019-03-21T13:34:28.142Z,21.60
2019-03-21T13:35:32.953Z,21.33
2019-03-21T13:36:36.630Z,21.22
2019-03-21T13:37:40.066Z,21.35
2019-03-21T13:38:43.514Z,21.97
2019-03-21T13:39:46.931Z,21.62
2019-03-21T13:40:50.451Z,21.03
2019-03-21T13:41:53.890Z,21.16
2019-03-21T13:42:57.312Z,20.79
2019-03-21T13:44:00.750Z,20.77
2019-03-21T13:45:06.219Z,19.79
2019-03-21T13:46:09.666Z,20.23
2019-03-21T13:47:13.098Z,20.33
2019-03-21T13:48:16.536Z,19.40
2019-03-21T13:49:19.971Z,20.41
2019-03-21T13:50:23.409Z,20.12
2019-03-21T13:51:26.869Z,19.30
2019-03-21T13:52:30.301Z,19.07
2019-03-21T13:53:33.737Z,18.67
2019-03-21T13:54:37.177Z,18.88
2019-03-21T13:55:40.679Z,19.22
2019-03-21T13:56:44.131Z,19.21
2019-03-21T13:57:47.562Z,18.61
2019-03-21T13:58:51.010Z,19.60
2019-03-21T13:59:54.443Z,19.65
2019-03-21T14:00:57.890Z,20.20
2019-03-21T14:02:01.344Z,20.07
2019-03-21T14:03:04.863Z,20.22
2019-03-21T14:04:08.310Z,20.25
2019-03-21T14:05:11.863Z,20.04
2019-03-21T14:06:15.398Z,20.15
2019-03-21T14:07:18.834Z,20.02
2019-03-21T14:08:22.263Z,20.08
2019-03-21T14:09:25.777Z,20.10
2019-03-21T14:10:29.247Z,20.25
2019-03-21T14:11:32.697Z,20.35
2019-03-21T14:12:36.129Z,19.93
2019-03-21T14:13:39.574Z,20.25
2019-03-21T14:14:43.001Z,20.17
2019-03-21T14:15:46.445Z,19.84
2019-03-21T14:16:51.051Z,20.08
2019-03-21T14:17:54.574Z,19.79
2019-03-21T14:18:58.009Z,19.89
2019-03-21T14:20:01.453Z,19.55
2019-03-21T14:21:04.945Z,19.21
2019-03-21T14:22:08.462Z,19.57
2019-03-21T14:23:16.851Z,19.37
2019-03-21T14:24:17.179Z,19.12
2019-03-21T14:25:20.608Z,18.91
2019-03-21T14:26:24.047Z,18.65
2019-03-21T14:27:27.491Z,18.18
2019-03-21T14:28:30.941Z,18.12
2019-03-21T14:29:34.424Z,17.73
2019-03-21T14:30:37.861Z,17.48
2019-03-21T14:31:41.419Z,17.39
2019-03-21T14:32:45.119Z,17.45
2019-03-21T14:33:48.542Z,17.64
2019-03-21T14:34:51.956Z,17.70
2019-03-21T14:35:55.397Z,17.68
2019-03-21T14:36:58.843Z,17.19
2019-03-21T14:38:02.282Z,17.28
2019-03-21T14:39:07.359Z,16.86
2019-03-21T14:40:13.190Z,16.80
2019-03-21T14:41:16.643Z,16.65
2019-03-21T14:42:20.116Z,16.10
2019-03-21T14:43:23.525Z,16.36
2019-03-21T14:44:26.963Z,16.16
2019-03-21T14:45:30.438Z,15.97
2019-03-21T14:46:33.875Z,16.32